createdAt,value
2023-01-04T00:00:28.467Z,102086.00
2023-01-04T00:02:54.890Z,102078.75
2023-01-04T00:05:21.312Z,102079.50
2023-01-04T00:07:47.643Z,102073.00
2023-01-04T00:10:13.972Z,102070.88
2023-01-04T00:12:40.300Z,102067.25
2023-01-04T00:15:06.879Z,102064.38
2023-01-04T00:17:33.492Z,102052.00
2023-01-04T00:19:59.813Z,102053.34
2023-01-04T00:22:32.159Z,102052.75
2023-01-04T00:25:01.143Z,102043.97
2023-01-04T00:27:27.467Z,102025.22
2023-01-04T00:29:56.754Z,102007.97
2023-01-04T00:32:26.070Z,102011.00
2023-01-04T00:34:52.416Z,102008.25
2023-01-04T00:37:19.746Z,102002.75
2023-01-04T00:39:46.087Z,102007.13
2023-01-04T00:42:12.409Z,102011.50
2023-01-04T00:44:38.845Z,102010.28
2023-01-04T00:47:05.231Z,102010.28
2023-01-04T00:49:31.568Z,102003.75
2023-01-04T00:51:57.935Z,101989.88
2023-01-04T00:54:24.310Z,101984.28
2023-01-04T00:56:50.640Z,101977.75
2023-01-04T00:59:17.591Z,101977.00
2023-01-04T01:01:44.118Z,101977.75
2023-01-04T01:04:12.864Z,101972.75
2023-01-04T01:06:39.324Z,101974.75
2023-01-04T01:09:05.679Z,101977.00
2023-01-04T01:11:32.066Z,101976.25
2023-01-04T01:13:58.420Z,101974.00
2023-01-04T01:16:51.821Z,101968.25
2023-01-04T01:19:11.218Z,101976.72
2023-01-04T01:21:37.881Z,101962.25
2023-01-04T01:24:04.513Z,101959.22
2023-01-04T01:26:30.887Z,101976.47
2023-01-04T01:28:57.210Z,101970.59
2023-01-04T01:31:24.191Z,101970.59
2023-01-04T01:33:51.023Z,101965.47
2023-01-04T01:36:23.872Z,101966.19
2023-01-04T01:38:56.488Z,101964.72
2023-01-04T01:41:23.735Z,101965.47
2023-01-04T01:43:54.198Z,101966.06
2023-01-04T01:46:24.958Z,101958.97
2023-01-04T01:48:52.097Z,101964.72
2023-01-04T01:51:18.423Z,101958.34
2023-01-04T01:53:45.601Z,101958.81
2023-01-04T01:56:11.935Z,101949.47
2023-01-04T01:58:39.481Z,101948.72
2023-01-04T02:01:06.824Z,101940.69
2023-01-04T02:03:42.318Z,101934.19
2023-01-04T02:06:10.306Z,101931.19
2023-01-04T02:08:37.058Z,101907.56
2023-01-04T02:11:03.613Z,101905.44
2023-01-04T02:13:49.978Z,101888.19
2023-01-04T02:16:35.055Z,101873.06
2023-01-04T02:19:27.380Z,101858.56
2023-01-04T02:22:02.489Z,101858.69
2023-01-04T02:24:43.505Z,101854.19
2023-01-04T02:27:20.434Z,101843.44
2023-01-04T02:30:05.613Z,101833.44
2023-01-04T02:32:31.875Z,101822.09
2023-01-04T02:35:16.933Z,101825.84
2023-01-04T02:37:50.682Z,101825.19
2023-01-04T02:40:19.749Z,101825.19
2023-01-04T02:46:40.674Z,101826.72
2023-01-04T02:49:26.154Z,101816.69
2023-01-04T02:51:52.508Z,101824.59
2023-01-04T02:54:20.080Z,101820.97
2023-01-04T02:56:58.371Z,101815.22
2023-01-04T02:59:34.054Z,101801.44
2023-01-04T03:02:38.211Z,101797.81
2023-01-04T03:05:23.501Z,101793.47
2023-01-04T03:07:52.220Z,101783.31
2023-01-04T03:10:20.837Z,101771.09
2023-01-04T03:12:52.238Z,101773.81
2023-01-04T03:15:22.528Z,101773.09
2023-01-04T03:17:56.010Z,101770.81
2023-01-04T03:20:23.164Z,101767.94
2023-01-04T03:23:11.932Z,101765.81
2023-01-04T03:25:58.248Z,101761.44
2023-01-04T03:28:44.402Z,101764.19
2023-01-04T03:31:40.975Z,101757.06
2023-01-04T03:34:25.984Z,101744.06
2023-01-04T03:37:01.288Z,101734.72
2023-01-04T03:39:45.994Z,101722.47
2023-01-04T03:42:34.353Z,101709.47
2023-01-04T03:45:23.785Z,101722.34
2023-01-04T03:48:10.461Z,101710.97
2023-01-04T03:50:41.060Z,101700.34
2023-01-04T03:53:07.502Z,101696.81
2023-01-04T03:55:34.248Z,101702.84
2023-01-04T03:58:00.588Z,101707.22
2023-01-04T04:00:26.950Z,101687.19
2023-01-04T04:02:53.303Z,101689.47
2023-01-04T04:05:41.831Z,101680.22
2023-01-04T04:08:26.908Z,101668.72
2023-01-04T04:10:53.317Z,101667.31
2023-01-04T04:13:19.642Z,101654.34
2023-01-04T04:15:45.968Z,101640.59
2023-01-04T04:18:15.003Z,101639.97
2023-01-04T04:20:41.329Z,101636.44
2023-01-04T04:23:07.653Z,101629.22
2023-01-04T04:25:33.995Z,101622.84
2023-01-04T04:28:00.339Z,101617.22
2023-01-04T04:30:26.680Z,101618.69
2023-01-04T04:32:53.115Z,101610.81
2023-01-04T04:35:22.430Z,101602.94
2023-01-04T04:37:51.692Z,101593.56
2023-01-04T04:40:36.771Z,101587.06
2023-01-04T04:43:03.133Z,101584.19
2023-01-04T04:45:29.547Z,101575.69
2023-01-04T04:47:55.891Z,101561.31
2023-01-04T04:50:22.238Z,101552.69
2023-01-04T04:52:55.624Z,101551.44
2023-01-04T04:55:22.425Z,101545.69
2023-01-04T04:57:48.755Z,101537.06
2023-01-04T05:00:15.162Z,101545.69
2023-01-04T05:02:41.532Z,101534.19
2023-01-04T05:05:08.008Z,101539.94
2023-01-04T05:07:34.324Z,101532.69
2023-01-04T05:10:00.637Z,101526.94
2023-01-04T05:12:45.635Z,101521.19
2023-01-04T05:15:11.961Z,101516.19
2023-01-04T05:17:40.998Z,101511.91
2023-01-04T05:20:07.609Z,101505.41
2023-01-04T05:22:33.937Z,101498.31
2023-01-04T05:25:00.266Z,101494.16
2023-01-04T05:27:26.600Z,101481.19
2023-01-04T05:30:11.785Z,101474.66
2023-01-04T05:32:38.112Z,101455.19
2023-01-04T05:35:04.527Z,101449.44
2023-01-04T05:37:30.852Z,101446.66
2023-01-04T05:39:57.223Z,101436.41
2023-01-04T05:42:26.270Z,101443.88
2023-01-04T05:44:52.711Z,101427.09
2023-01-04T05:47:19.074Z,101425.16
2023-01-04T05:49:45.411Z,101424.69
2023-01-04T05:52:11.740Z,101418.41
2023-01-04T05:54:38.067Z,101417.91
2023-01-04T05:57:04.408Z,101414.28
2023-01-04T05:59:34.435Z,101404.91
2023-01-04T06:02:05.887Z,101404.91
2023-01-04T06:04:32.308Z,101394.91
2023-01-04T06:06:58.695Z,101383.28
2023-01-04T06:09:26.716Z,101389.16
2023-01-04T06:11:53.045Z,101381.94
2023-01-04T06:14:19.389Z,101377.59
2023-01-04T06:16:45.763Z,101371.84
2023-01-04T06:19:12.120Z,101360.34
2023-01-04T06:21:38.813Z,101359.59
2023-01-04T06:24:05.353Z,101351.03
2023-01-04T06:26:31.676Z,101348.09
2023-01-04T06:28:57.995Z,101346.56
2023-01-04T06:31:24.387Z,101341.56
2023-01-04T06:33:51.499Z,101342.34
2023-01-04T06:36:20.751Z,101330.84
2023-01-04T06:38:47.443Z,101327.84
2023-01-04T06:41:13.774Z,101322.84
2023-01-04T06:43:40.089Z,101322.22
2023-01-04T06:46:06.490Z,101304.06
2023-01-04T06:48:32.856Z,101312.69
2023-01-04T06:50:59.209Z,101316.34
2023-01-04T06:53:25.543Z,101307.81
2023-01-04T06:55:51.907Z,101296.94
2023-01-04T06:58:18.240Z,101295.56
2023-01-04T07:00:48.515Z,101279.59
2023-01-04T07:03:16.134Z,101278.84
2023-01-04T07:05:43.089Z,101275.22
2023-01-04T07:08:09.621Z,101280.97
2023-01-04T07:10:36.089Z,101270.09
2023-01-04T07:13:02.454Z,101265.84
2023-01-04T07:15:39.168Z,101259.34
2023-01-04T07:18:07.220Z,101264.34
2023-01-04T07:20:33.553Z,101260.09
2023-01-04T07:22:59.911Z,101247.09
2023-01-04T07:25:26.313Z,101242.72
2023-01-04T07:27:53.213Z,101232.63
2023-01-04T07:30:20.060Z,101235.50
2023-01-04T07:32:46.482Z,101231.22
2023-01-04T07:35:12.848Z,101220.38
2023-01-04T07:37:39.321Z,101225.34
2023-01-04T07:40:06.147Z,101218.13
2023-01-04T07:42:32.462Z,101205.16
2023-01-04T07:44:58.799Z,101187.91
2023-01-04T07:47:25.173Z,101186.38
2023-01-04T07:49:51.516Z,101182.16
2023-01-04T07:52:17.847Z,101173.41
2023-01-04T07:54:46.757Z,101174.88
2023-01-04T07:57:13.069Z,101165.63
2023-01-04T07:59:39.399Z,101160.63
2023-01-04T08:02:05.822Z,101151.88
2023-01-04T08:04:35.202Z,101151.88
2023-01-04T08:07:01.974Z,101151.88
2023-01-04T08:09:28.312Z,101131.66
2023-01-04T08:11:54.653Z,101118.69
2023-01-04T08:14:24.644Z,101125.06
2023-01-04T08:16:51.067Z,101118.69
2023-01-04T08:19:18.091Z,101120.81
2023-01-04T08:21:44.426Z,101137.97
2023-01-04T08:24:11.346Z,101125.16
2023-01-04T08:26:37.741Z,101124.31
2023-01-04T08:29:04.063Z,101111.25
2023-01-04T08:31:30.666Z,101098.97
2023-01-04T08:33:57.007Z,101117.94
2023-01-04T08:36:27.143Z,101104.09
2023-01-04T08:39:02.502Z,101102.69
2023-01-04T08:44:15.529Z,101099.41
2023-01-04T08:46:41.987Z,101105.88
2023-01-04T08:49:11.466Z,101100.88
2023-01-04T08:51:37.818Z,101111.13
2023-01-04T08:54:04.146Z,101111.13
2023-01-04T08:56:30.477Z,101110.34
2023-01-04T08:58:56.823Z,101108.88
2023-01-04T09:01:23.215Z,101104.59
2023-01-04T09:03:49.635Z,101110.34
2023-01-04T09:06:16.096Z,101107.38
2023-01-04T09:08:42.587Z,101090.13
2023-01-04T09:11:13.003Z,101090.13
2023-01-04T09:13:39.433Z,101084.38
2023-01-04T09:16:07.042Z,101078.72
2023-01-04T09:18:33.605Z,101072.88
2023-01-04T09:21:01.508Z,101076.41
2023-01-04T09:23:28.932Z,101060.09
2023-01-04T09:25:55.285Z,101060.09
2023-01-04T09:28:21.620Z,101054.34
2023-01-04T09:30:47.972Z,101064.56
2023-01-04T09:33:17.014Z,101035.59
2023-01-04T09:35:43.333Z,101038.38
2023-01-04T09:38:09.655Z,101035.41
2023-01-04T09:40:50.921Z,101034.66
2023-01-04T09:43:20.268Z,101032.53
2023-01-04T09:45:48.118Z,101024.53
2023-01-04T09:48:17.833Z,101016.66
2023-01-04T09:50:51.640Z,101009.53
2023-01-04T09:53:34.783Z,101005.16
2023-01-04T09:56:13.405Z,101007.28
2023-01-04T09:58:40.055Z,101001.09
2023-01-04T10:01:07.323Z,100988.66
2023-01-04T10:03:41.318Z,100996.84
2023-01-04T10:06:10.096Z,100991.84
2023-01-04T10:08:36.409Z,100988.31
2023-01-04T10:11:28.574Z,100981.16
2023-01-04T10:14:13.994Z,100966.06
2023-01-04T10:17:17.855Z,100960.56
2023-01-04T10:21:11.984Z,100946.44
2023-01-04T10:22:53.012Z,100947.66
2023-01-04T10:25:21.375Z,100940.63
2023-01-04T10:27:56.992Z,100929.22
2023-01-04T10:30:42.893Z,100933.59
2023-01-04T10:33:27.704Z,100929.31
2023-01-04T10:35:54.038Z,100923.66
2023-01-04T10:38:24.149Z,100928.03
2023-01-04T10:40:50.619Z,100910.78
2023-01-04T10:43:29.492Z,100910.78
2023-01-04T10:46:04.624Z,100899.28
2023-01-04T10:48:36.407Z,100897.78
2023-01-04T10:51:09.902Z,100894.28
2023-01-04T10:53:51.296Z,100890.66
2023-01-04T10:56:27.132Z,100876.28
2023-01-04T10:58:56.682Z,100875.63
2023-01-04T11:01:33.863Z,100869.22
2023-01-04T11:04:06.098Z,100860.59
2023-01-04T11:06:38.832Z,100854.22
2023-01-04T11:09:07.472Z,100854.97
2023-01-04T11:11:38.450Z,100850.59
2023-01-04T11:14:04.781Z,100853.47
2023-01-04T11:16:31.128Z,100847.06
2023-01-04T11:18:57.683Z,100845.06
2023-01-04T11:21:26.198Z,100830.84
2023-01-04T11:23:54.120Z,100840.66
2023-01-04T11:26:24.518Z,100839.25
2023-01-04T11:28:54.894Z,100834.19
2023-01-04T11:31:23.148Z,100830.03
2023-01-04T11:33:56.683Z,100824.19
2023-01-04T11:36:42.144Z,100815.78
2023-01-04T11:39:24.574Z,100813.97
2023-01-04T11:42:03.416Z,100812.16
2023-01-04T11:44:30.314Z,100797.16
2023-01-04T11:47:04.919Z,100788.91
2023-01-04T11:49:34.071Z,100773.81
2023-01-04T11:52:00.409Z,100783.47
2023-01-04T11:54:26.759Z,100784.63
2023-01-04T12:00:13.900Z,100774.75
2023-01-04T12:03:00.765Z,100764.13
2023-01-04T12:05:31.855Z,100765.34
2023-01-04T12:07:58.402Z,100764.78
2023-01-04T12:10:26.741Z,100759.88
2023-01-04T12:12:56.865Z,100753.97
2023-01-04T12:15:32.766Z,100754.13
2023-01-04T12:17:59.883Z,100749.16
2023-01-04T12:20:27.274Z,100736.91
2023-01-04T12:22:53.613Z,100741.38
2023-01-04T12:25:38.876Z,100732.81
2023-01-04T12:28:05.287Z,100735.59
2023-01-04T12:30:34.392Z,100739.44
2023-01-04T12:33:01.087Z,100725.72
2023-01-04T12:35:46.213Z,100729.88
2023-01-04T12:38:12.587Z,100723.31
2023-01-04T12:40:44.945Z,100723.22
2023-01-04T12:43:16.928Z,100715.44
2023-01-04T12:45:43.581Z,100703.19
2023-01-04T12:48:46.783Z,100709.78
2023-01-04T12:51:31.220Z,100705.72
2023-01-04T12:54:02.429Z,100702.22
2023-01-04T12:56:47.455Z,100697.22
2023-01-04T12:59:25.051Z,100698.78
2023-01-04T13:02:10.944Z,100695.91
2023-01-04T13:04:41.031Z,100692.38
2023-01-04T13:07:09.652Z,100685.81
2023-01-04T13:09:43.381Z,100684.22
2023-01-04T13:12:18.914Z,100667.28
2023-01-04T13:14:47.181Z,100667.38
2023-01-04T13:17:15.092Z,100654.47
2023-01-04T13:19:43.361Z,100655.97
2023-01-04T13:22:28.816Z,100666.88
2023-01-04T13:24:57.525Z,100644.66
2023-01-04T13:27:26.480Z,100645.41
2023-01-04T13:29:52.908Z,100655.59
2023-01-04T13:32:19.257Z,100643.34
2023-01-04T13:34:52.646Z,100631.66
2023-01-04T13:37:24.324Z,100640.19
2023-01-04T13:39:51.651Z,100654.66
2023-01-04T13:42:17.936Z,100630.19
2023-01-04T13:47:41.258Z,100631.75
2023-01-04T13:50:14.089Z,100630.38
2023-01-04T13:52:59.811Z,100624.06
2023-01-04T13:55:31.417Z,100614.81
2023-01-04T13:57:58.485Z,100614.81
2023-01-04T14:00:25.597Z,100634.25
2023-01-04T14:03:06.250Z,100619.25
2023-01-04T14:05:32.719Z,100620.75
2023-01-04T14:07:59.041Z,100626.47
2023-01-04T14:10:25.382Z,100620.75
2023-01-04T14:12:51.780Z,100620.66
2023-01-04T14:15:20.657Z,100612.75
2023-01-04T14:17:48.666Z,100610.63
2023-01-04T14:20:22.650Z,100622.75
2023-01-04T14:22:48.960Z,100625.63
2023-01-04T14:25:44.650Z,100606.19
2023-01-04T14:28:24.591Z,100595.34
2023-01-04T14:30:52.337Z,100590.31
2023-01-04T14:33:19.484Z,100601.06
2023-01-04T14:36:04.295Z,100594.59
2023-01-04T14:38:30.644Z,100598.19
2023-01-04T14:40:57.002Z,100600.34
2023-01-04T14:43:36.178Z,100595.50
2023-01-04T14:46:02.517Z,100591.25
2023-01-04T14:48:29.332Z,100581.97
2023-01-04T14:50:55.866Z,100588.44
2023-01-04T14:53:22.193Z,100582.72
2023-01-04T14:55:48.529Z,100576.22
2023-01-04T14:58:14.885Z,100574.09
2023-01-04T15:00:41.515Z,100576.97
2023-01-04T15:03:09.620Z,100570.47
2023-01-04T15:05:38.009Z,100564.00
2023-01-04T15:08:04.580Z,100558.88
2023-01-04T15:10:30.929Z,100556.03
2023-01-04T15:13:00.427Z,100557.50
2023-01-04T15:15:26.928Z,100544.53
2023-01-04T15:17:53.262Z,100554.63
2023-01-04T15:20:22.240Z,100559.47
2023-01-04T15:22:49.464Z,100550.00
2023-01-04T15:25:15.849Z,100540.19
2023-01-04T15:27:43.072Z,100553.16
2023-01-04T15:30:10.385Z,100540.28
2023-01-04T15:32:36.811Z,100546.09
2023-01-04T15:35:03.177Z,100530.34
2023-01-04T15:37:29.534Z,100543.22
2023-01-04T15:40:01.963Z,100542.47
2023-01-04T15:42:48.221Z,100537.47
2023-01-04T15:45:14.568Z,100521.63
2023-01-04T15:47:40.926Z,100523.84
2023-01-04T15:50:07.325Z,100524.50
2023-01-04T15:52:33.657Z,100520.16
2023-01-04T15:54:59.970Z,100512.25
2023-01-04T15:57:26.320Z,100510.03
2023-01-04T15:59:52.677Z,100515.78
2023-01-04T16:02:19.200Z,100522.94
2023-01-04T16:04:49.413Z,100499.94
2023-01-04T16:07:15.853Z,100492.78
2023-01-04T16:09:42.294Z,100491.47
2023-01-04T16:12:27.241Z,100490.75
2023-01-04T16:14:53.589Z,100475.72
2023-01-04T16:17:19.903Z,100474.31
2023-01-04T16:19:46.209Z,100467.19
2023-01-04T16:22:12.536Z,100464.31
2023-01-04T16:27:35.154Z,100467.94
2023-01-04T16:30:02.494Z,100455.69
2023-01-04T16:32:28.868Z,100442.72
2023-01-04T16:34:55.197Z,100453.47
2023-01-04T16:37:21.528Z,100454.19
2023-01-04T16:43:44.864Z,100440.50
2023-01-04T16:46:16.245Z,100445.50
2023-01-04T16:48:43.162Z,100424.72
2023-01-04T16:51:11.871Z,100413.97
2023-01-04T16:53:38.252Z,100411.19
2023-01-04T16:56:07.750Z,100405.44
2023-01-04T16:58:34.096Z,100412.69
2023-01-04T17:01:10.423Z,100409.81
2023-01-04T17:03:36.863Z,100412.69
2023-01-04T17:06:10.363Z,100405.44
2023-01-04T17:08:36.693Z,100398.59
2023-01-04T17:11:38.474Z,100399.13
2023-01-04T17:13:52.850Z,100394.84
2023-01-04T17:16:21.346Z,100392.78
2023-01-04T17:18:48.074Z,100421.78
2023-01-04T17:21:36.456Z,100395.00
2023-01-04T17:24:06.067Z,100395.56
2023-01-04T17:26:32.528Z,100384.03
2023-01-04T17:28:59.066Z,100372.56
2023-01-04T17:31:32.516Z,100350.91
2023-01-04T17:33:58.924Z,100360.19
2023-01-04T17:36:25.308Z,100368.06
2023-01-04T17:38:51.699Z,100373.81
2023-01-04T17:41:17.984Z,100355.13
2023-01-04T17:43:44.724Z,100368.00
2023-01-04T17:46:13.199Z,100360.78
2023-01-04T17:48:45.597Z,100353.53
2023-01-04T17:51:14.888Z,100346.41
2023-01-04T17:53:41.483Z,100366.44
2023-01-04T17:56:08.608Z,100364.31
2023-01-04T17:58:34.994Z,100351.34
2023-01-04T18:01:07.188Z,100357.09
2023-01-04T18:03:33.659Z,100353.53
2023-01-04T18:06:24.452Z,100344.91
2023-01-04T18:08:46.365Z,100357.91
2023-01-04T18:11:12.824Z,100354.38
2023-01-04T18:16:24.290Z,100352.25
2023-01-04T18:18:51.339Z,100365.19
2023-01-04T18:21:27.963Z,100360.94
2023-01-04T18:24:34.268Z,100335.16
2023-01-04T18:27:10.632Z,100335.16
2023-01-04T18:29:27.859Z,100340.97
2023-01-04T18:31:54.252Z,100348.22
2023-01-04T18:34:20.857Z,100342.38
2023-01-04T18:36:47.193Z,100343.84
2023-01-04T18:39:13.589Z,100328.09
2023-01-04T18:41:46.209Z,100328.09
2023-01-04T18:44:35.187Z,100331.03
2023-01-04T18:47:04.691Z,100326.69
2023-01-04T18:49:31.091Z,100323.81
2023-01-04T18:51:57.537Z,100326.69
2023-01-04T18:54:23.900Z,100334.56
2023-01-04T18:56:52.247Z,100316.59
2023-01-04T18:59:23.535Z,100316.59
2023-01-04T19:01:50.197Z,100305.09
2023-01-04T19:04:19.026Z,100296.38
2023-01-04T19:06:48.183Z,100300.59
2023-01-04T19:09:14.790Z,100309.22
2023-01-04T19:11:42.806Z,100312.75
2023-01-04T19:14:09.301Z,100296.22
2023-01-04T19:16:35.789Z,100297.63
2023-01-04T19:19:02.436Z,100304.75
2023-01-04T19:21:29.022Z,100288.94
2023-01-04T19:23:55.525Z,100301.88
2023-01-04T19:26:25.185Z,100292.72
2023-01-04T19:28:51.866Z,100288.22
2023-01-04T19:31:19.013Z,100290.41
2023-01-04T19:33:45.546Z,100284.56
2023-01-04T19:36:15.038Z,100281.69
2023-01-04T19:38:41.814Z,100283.19
2023-01-04T19:41:08.417Z,100280.31
2023-01-04T19:43:35.038Z,100293.13
2023-01-04T19:46:02.400Z,100275.94
2023-01-04T19:48:32.965Z,100280.31
2023-01-04T19:51:04.316Z,100281.78
2023-01-04T19:53:30.668Z,100283.09
2023-01-04T19:55:57.118Z,100276.09
2023-01-04T19:58:23.504Z,100266.03
2023-01-04T20:00:54.454Z,100260.28
2023-01-04T20:03:22.484Z,100258.06
2023-01-04T20:05:49.092Z,100260.28
2023-01-04T20:08:15.436Z,100264.63
2023-01-04T20:10:41.764Z,100267.50
2023-01-04T20:13:08.092Z,100256.88
2023-01-04T20:15:34.439Z,100263.22
2023-01-04T20:18:00.772Z,100259.69
2023-01-04T20:20:27.738Z,100262.63
2023-01-04T20:22:54.062Z,100265.50
2023-01-04T20:25:20.420Z,100258.38
2023-01-04T20:27:46.803Z,100254.81
2023-01-04T20:30:13.137Z,100249.06
2023-01-04T20:32:39.572Z,100247.59
2023-01-04T20:35:06.021Z,100259.09
2023-01-04T20:37:32.684Z,100251.88
2023-01-04T20:39:59.057Z,100260.56
2023-01-04T20:42:43.888Z,100267.00
2023-01-04T20:45:10.397Z,100259.09
2023-01-04T20:47:40.154Z,100246.13
2023-01-04T20:50:06.997Z,100238.91
2023-01-04T20:52:33.352Z,100244.66
2023-01-04T20:54:59.686Z,100244.66
2023-01-04T20:57:26.218Z,100243.19
2023-01-04T20:59:52.551Z,100234.50
2023-01-04T21:02:19.716Z,100239.56
2023-01-04T21:04:49.280Z,100240.25
2023-01-04T21:07:15.619Z,100246.72
2023-01-04T21:09:41.969Z,100246.00
2023-01-04T21:12:08.453Z,100243.03
2023-01-04T21:14:38.022Z,100246.00
2023-01-04T21:17:04.902Z,100246.00
2023-01-04T21:19:31.283Z,100231.53
2023-01-04T21:21:57.610Z,100221.50
2023-01-04T21:24:23.944Z,100224.31
2023-01-04T21:26:50.258Z,100238.03
2023-01-04T21:29:16.590Z,100258.22
2023-01-04T21:31:42.949Z,100264.69
2023-01-04T21:34:13.570Z,100247.44
2023-01-04T21:36:41.508Z,100238.81
2023-01-04T21:39:07.843Z,100234.63
2023-01-04T21:41:34.624Z,100249.00
2023-01-04T21:44:01.031Z,100241.78
2023-01-04T21:46:28.602Z,100248.25
2023-01-04T21:48:58.451Z,100248.25
2023-01-04T21:51:24.790Z,100247.53
2023-01-04T21:53:53.876Z,100262.63
2023-01-04T21:56:26.145Z,100250.41
2023-01-04T21:58:52.469Z,100237.44
2023-01-04T22:01:22.637Z,100232.44
2023-01-04T22:03:52.088Z,100237.44
2023-01-04T22:06:22.880Z,100228.81
2023-01-04T22:08:49.229Z,100219.44
2023-01-04T22:11:15.563Z,100217.25
2023-01-04T22:13:42.097Z,100233.81
2023-01-04T22:16:09.200Z,100211.50
2023-01-04T22:18:35.688Z,100212.22
2023-01-04T22:21:11.592Z,100218.72
2023-01-04T22:23:40.603Z,100239.47
2023-01-04T22:26:06.966Z,100262.47
2023-01-04T22:28:36.787Z,100246.00
2023-01-04T22:31:10.706Z,100251.72
2023-01-04T22:33:40.374Z,100243.19
2023-01-04T22:36:07.401Z,100238.19
2023-01-04T22:38:37.612Z,100240.31
2023-01-04T22:41:12.642Z,100247.44
2023-01-04T22:43:47.697Z,100251.72
2023-01-04T22:46:14.731Z,100246.63
2023-01-04T22:48:41.086Z,100251.66
2023-01-04T22:51:07.925Z,100257.41
2023-01-04T22:53:34.254Z,100253.03
2023-01-04T22:56:21.055Z,100249.44
2023-01-04T22:58:52.913Z,100241.53
2023-01-04T23:01:20.860Z,100240.06
2023-01-04T23:03:47.571Z,100239.44
2023-01-04T23:06:14.043Z,100238.59
2023-01-04T23:08:40.401Z,100228.59
2023-01-04T23:11:11.321Z,100231.47
2023-01-04T23:13:37.707Z,100232.84
2023-01-04T23:16:07.564Z,100231.38
2023-01-04T23:18:34.006Z,100225.63
2023-01-04T23:21:00.356Z,100230.66
2023-01-04T23:23:26.710Z,100224.91
2023-01-04T23:25:53.044Z,100227.03
2023-01-04T23:28:19.375Z,100228.41
2023-01-04T23:30:45.709Z,100231.28
2023-01-04T23:33:12.070Z,100229.84
2023-01-04T23:35:38.400Z,100231.22
2023-01-04T23:38:04.749Z,100226.88
2023-01-04T23:40:31.127Z,100222.59
2023-01-04T23:42:59.364Z,100225.47
2023-01-04T23:45:26.329Z,100223.28
2023-01-04T23:47:52.660Z,100224.75
2023-01-04T23:50:18.998Z,100216.03
2023-01-04T23:52:45.328Z,100216.03
2023-01-04T23:55:11.664Z,100221.06
2023-01-04T23:57:37.988Z,100221.06
